Milan, New Hampshire
Current Conditions -  °F | °C
As of 9:14 AM on Wednesday 22 Oct 2014 (Local Time) from KBML Reporting Station
Overcast Overcast  
Wind Chill: 44°   Ceiling: 3400
Heat Index: 47°   Visibility: 10mi
Dew Point: 43°   Wind: 7mph
Humidity: 86%   Direction: NA
Pressure: 30.19"   Gusts: NA
Location:  44.57°N, 71.19°W
Report Text: KBML 221314Z AUTO VRB06KT 10SM FEW019 BKN034 OVC044 08/06 A3019 RMK AO2 T00830061
Loading
Personal Weather Stations






























Interactive Weather Map
Tropical Storm Tracking
New forecast layout! Learn more

10-Day Weather Forecast

Advertisements
Track Severe Weather on mobile